createdAt,value
2023-07-25T00:01:11.896Z,13.58
2023-07-25T00:03:40.114Z,13.53
2023-07-25T00:06:09.565Z,13.46
2023-07-25T00:08:37.799Z,13.48
2023-07-25T00:11:05.956Z,13.53
2023-07-25T00:13:34.089Z,13.53
2023-07-25T00:16:02.235Z,13.46
2023-07-25T00:18:30.410Z,13.41
2023-07-25T00:20:58.568Z,13.46
2023-07-25T00:23:28.028Z,13.39
2023-07-25T00:25:56.138Z,13.41
2023-07-25T00:28:26.884Z,13.44
2023-07-25T00:30:54.953Z,13.38
2023-07-25T00:33:23.070Z,13.43
2023-07-25T00:35:54.405Z,13.41
2023-07-25T00:38:22.528Z,13.41
2023-07-25T00:40:52.075Z,13.40
2023-07-25T00:43:20.242Z,13.41
2023-07-25T00:45:48.408Z,13.34
2023-07-25T00:48:16.639Z,13.23
2023-07-25T00:50:45.903Z,13.24
2023-07-25T00:53:17.828Z,13.14
2023-07-25T00:55:46.506Z,13.23
2023-07-25T00:58:18.852Z,13.10
2023-07-25T01:00:47.150Z,13.10
2023-07-25T01:03:16.017Z,13.13
2023-07-25T01:05:46.898Z,13.05
2023-07-25T01:08:15.156Z,13.05
2023-07-25T01:10:43.235Z,13.07
2023-07-25T01:13:11.386Z,13.06
2023-07-25T01:15:42.331Z,13.11
2023-07-25T01:18:11.456Z,13.08
2023-07-25T01:20:39.735Z,13.06
2023-07-25T01:23:09.213Z,13.11
2023-07-25T01:25:39.058Z,13.07
2023-07-25T01:28:07.698Z,13.08
2023-07-25T01:30:35.882Z,13.09
2023-07-25T01:33:04.093Z,13.01
2023-07-25T01:35:32.386Z,13.00
2023-07-25T01:38:00.470Z,13.07
2023-07-25T01:40:28.646Z,12.90
2023-07-25T01:42:58.253Z,12.79
2023-07-25T01:45:26.496Z,12.85
2023-07-25T01:47:54.941Z,12.87
2023-07-25T01:50:23.128Z,12.82
2023-07-25T01:52:51.222Z,12.81
2023-07-25T01:55:19.677Z,12.68
2023-07-25T01:57:47.887Z,12.72
2023-07-25T02:00:17.627Z,12.59
2023-07-25T02:02:45.890Z,12.56
2023-07-25T02:05:13.972Z,12.61
2023-07-25T02:07:42.101Z,12.51
2023-07-25T02:10:11.056Z,12.56
2023-07-25T02:12:39.228Z,12.55
2023-07-25T02:15:08.438Z,12.55
2023-07-25T02:17:37.995Z,12.55
2023-07-25T02:20:07.685Z,12.45
2023-07-25T02:22:35.894Z,12.59
2023-07-25T02:25:04.218Z,12.51
2023-07-25T02:27:32.365Z,12.46
2023-07-25T02:30:00.442Z,12.43
2023-07-25T02:32:28.646Z,12.46
2023-07-25T02:34:58.531Z,12.43
2023-07-25T02:37:26.755Z,12.37
2023-07-25T02:39:54.939Z,12.32
2023-07-25T02:42:23.140Z,12.27
2023-07-25T02:44:51.390Z,12.25
2023-07-25T02:47:19.616Z,12.26
2023-07-25T02:49:47.816Z,12.20
2023-07-25T02:52:17.340Z,12.15
2023-07-25T02:54:45.509Z,12.15
2023-07-25T02:57:13.754Z,12.15
2023-07-25T02:59:41.805Z,12.06
2023-07-25T03:02:11.428Z,12.08
2023-07-25T03:04:39.633Z,12.06
2023-07-25T03:07:08.281Z,12.04
2023-07-25T03:09:38.882Z,12.03
2023-07-25T03:12:07.532Z,12.02
2023-07-25T03:14:35.932Z,11.99
2023-07-25T03:17:04.279Z,12.02
2023-07-25T03:19:32.439Z,11.99
2023-07-25T03:22:00.564Z,12.04
2023-07-25T03:24:28.766Z,12.06
2023-07-25T03:26:58.348Z,12.01
2023-07-25T03:29:26.771Z,12.05
2023-07-25T03:31:54.928Z,12.11
2023-07-25T03:34:23.070Z,11.96
2023-07-25T03:36:51.186Z,11.99
2023-07-25T03:39:19.411Z,11.95
2023-07-25T03:41:47.616Z,11.99
2023-07-25T03:44:18.796Z,11.92
2023-07-25T03:46:47.041Z,11.86
2023-07-25T03:49:15.584Z,11.87
2023-07-25T03:51:43.681Z,11.82
2023-07-25T03:54:11.840Z,11.83
2023-07-25T03:56:40.011Z,11.76
2023-07-25T03:59:08.327Z,11.84
2023-07-25T04:01:37.903Z,11.88
2023-07-25T04:04:06.407Z,11.91
2023-07-25T04:06:34.660Z,11.84
2023-07-25T04:09:02.817Z,11.83
2023-07-25T04:11:31.301Z,11.79
2023-07-25T04:13:59.597Z,11.74
2023-07-25T04:16:27.703Z,11.76
2023-07-25T04:18:57.269Z,11.78
2023-07-25T04:21:25.597Z,11.65
2023-07-25T04:23:53.775Z,11.73
2023-07-25T04:26:21.894Z,11.78
2023-07-25T04:28:50.521Z,11.78
2023-07-25T04:31:18.668Z,11.80
2023-07-25T04:33:46.798Z,11.87
2023-07-25T04:36:16.378Z,11.84
2023-07-25T04:38:44.536Z,11.89
2023-07-25T04:41:12.673Z,11.95
2023-07-25T04:43:40.818Z,11.88
2023-07-25T04:46:09.071Z,11.87
2023-07-25T04:48:37.187Z,11.93
2023-07-25T04:51:05.380Z,11.94
2023-07-25T04:53:35.771Z,11.96
2023-07-25T04:56:03.916Z,12.00
2023-07-25T04:58:32.144Z,12.00
2023-07-25T05:01:00.251Z,11.98
2023-07-25T05:03:28.471Z,11.97
2023-07-25T05:05:58.201Z,11.95
2023-07-25T05:08:26.546Z,11.97
2023-07-25T05:10:56.363Z,12.02
2023-07-25T05:13:24.677Z,12.05
2023-07-25T05:15:52.864Z,12.12
2023-07-25T05:18:21.259Z,12.15
2023-07-25T05:20:49.418Z,12.14
2023-07-25T05:23:17.760Z,12.17
2023-07-25T05:25:48.791Z,12.22
2023-07-25T05:28:19.966Z,12.32
2023-07-25T05:30:48.148Z,12.39
2023-07-25T05:33:16.304Z,12.42
2023-07-25T05:35:44.538Z,12.47
2023-07-25T05:38:12.590Z,12.56
2023-07-25T05:40:40.750Z,12.56
2023-07-25T05:43:08.903Z,12.60
2023-07-25T05:45:38.530Z,12.68
2023-07-25T05:48:07.055Z,12.79
2023-07-25T05:50:35.259Z,12.89
2023-07-25T05:53:03.867Z,12.98
2023-07-25T05:55:31.952Z,13.09
2023-07-25T05:58:00.163Z,13.19
2023-07-25T06:00:28.311Z,13.34
2023-07-25T06:02:57.862Z,13.45
2023-07-25T06:05:26.148Z,13.66
2023-07-25T06:07:54.583Z,13.77
2023-07-25T06:10:25.274Z,13.98
2023-07-25T06:12:55.767Z,14.06
2023-07-25T06:15:24.023Z,14.15
2023-07-25T06:17:52.133Z,14.28
2023-07-25T06:20:21.712Z,14.30
2023-07-25T06:22:50.161Z,14.34
2023-07-25T06:25:18.341Z,14.46
2023-07-25T06:27:46.533Z,14.46
2023-07-25T06:30:14.722Z,14.54
2023-07-25T06:32:43.395Z,14.65
2023-07-25T06:35:11.609Z,14.69
2023-07-25T06:37:41.175Z,14.78
2023-07-25T06:40:10.202Z,14.88
2023-07-25T06:42:38.337Z,14.86
2023-07-25T06:45:07.240Z,14.94
2023-07-25T06:47:35.477Z,14.98
2023-07-25T06:50:03.803Z,14.97
2023-07-25T06:52:31.914Z,14.99
2023-07-25T06:55:01.385Z,15.10
2023-07-25T06:57:30.278Z,15.13
2023-07-25T06:59:58.502Z,15.10
2023-07-25T07:02:26.726Z,15.12
2023-07-25T07:04:56.839Z,15.15
2023-07-25T07:07:25.325Z,15.18
2023-07-25T07:09:53.412Z,15.28
2023-07-25T07:12:22.881Z,15.30
2023-07-25T07:14:51.811Z,15.52
2023-07-25T07:17:20.052Z,15.56
2023-07-25T07:19:48.288Z,15.63
2023-07-25T07:22:16.566Z,15.76
2023-07-25T07:24:44.661Z,15.91
2023-07-25T07:27:12.825Z,15.93
2023-07-25T07:29:42.314Z,16.02
2023-07-25T07:32:10.604Z,16.09
2023-07-25T07:34:38.788Z,16.18
2023-07-25T07:37:08.861Z,16.46
2023-07-25T07:39:38.679Z,16.51
2023-07-25T07:42:06.997Z,16.51
2023-07-25T07:44:35.089Z,16.64
2023-07-25T07:47:05.081Z,16.89
2023-07-25T07:49:34.760Z,16.96
2023-07-25T07:54:35.224Z,17.36
2023-07-25T07:57:03.423Z,17.40
2023-07-25T07:59:32.681Z,17.55
2023-07-25T08:02:06.216Z,17.65
2023-07-25T08:04:34.719Z,17.74
2023-07-25T08:07:03.014Z,17.81
2023-07-25T08:09:31.164Z,17.88
2023-07-25T08:11:59.862Z,17.78
2023-07-25T08:14:28.347Z,17.85
2023-07-25T08:16:56.531Z,17.89
2023-07-25T08:19:26.217Z,17.92
2023-07-25T08:21:55.420Z,18.02
2023-07-25T08:24:23.619Z,18.01
2023-07-25T08:26:51.868Z,18.02
2023-07-25T08:29:19.965Z,18.17
2023-07-25T08:31:48.163Z,18.21
2023-07-25T08:34:16.379Z,18.36
2023-07-25T08:36:45.967Z,18.39
2023-07-25T08:39:14.128Z,18.42
2023-07-25T08:41:46.397Z,18.65
2023-07-25T08:44:16.735Z,18.72
2023-07-25T08:46:48.011Z,18.87
2023-07-25T08:49:18.575Z,19.15
2023-07-25T08:51:50.104Z,19.48
2023-07-25T08:54:23.483Z,19.66
2023-07-25T08:56:51.821Z,19.79
2023-07-25T08:59:21.809Z,19.92
2023-07-25T09:01:51.379Z,20.37
2023-07-25T09:04:21.204Z,20.73
2023-07-25T09:06:50.993Z,20.88
2023-07-25T09:09:19.846Z,20.60
2023-07-25T09:11:48.110Z,20.53
2023-07-25T09:14:16.536Z,20.30
2023-07-25T09:16:47.629Z,20.23
2023-07-25T09:19:16.148Z,20.16
2023-07-25T09:21:50.675Z,19.70
2023-07-25T09:24:18.939Z,19.70
2023-07-25T09:26:51.333Z,19.98
2023-07-25T09:29:21.930Z,19.91
2023-07-25T09:31:50.302Z,19.60
2023-07-25T09:34:25.838Z,20.07
2023-07-25T09:36:55.356Z,20.30
2023-07-25T09:39:23.509Z,20.51
2023-07-25T09:41:53.046Z,20.45
2023-07-25T09:44:21.222Z,20.51
2023-07-25T09:46:54.269Z,20.90
2023-07-25T09:49:24.049Z,21.03
2023-07-25T09:52:05.444Z,21.26
2023-07-25T09:54:33.754Z,21.55
2023-07-25T09:57:02.133Z,21.63
2023-07-25T09:59:30.447Z,22.05
2023-07-25T10:01:59.318Z,22.18
2023-07-25T10:04:32.282Z,21.95
2023-07-25T10:07:04.062Z,21.93
2023-07-25T10:09:32.821Z,21.70
2023-07-25T10:12:02.659Z,21.65
2023-07-25T10:14:30.758Z,21.81
2023-07-25T10:17:00.897Z,22.22
2023-07-25T10:19:29.389Z,22.73
2023-07-25T10:21:57.630Z,22.92
2023-07-25T10:24:35.299Z,22.74
2023-07-25T10:27:10.234Z,22.85
2023-07-25T10:29:44.005Z,22.96
2023-07-25T10:32:15.196Z,23.09
2023-07-25T10:34:51.366Z,23.62
2023-07-25T10:37:28.865Z,23.23
2023-07-25T10:40:12.781Z,22.99
2023-07-25T10:43:00.437Z,22.37
2023-07-25T10:45:50.595Z,22.36
2023-07-25T10:48:29.767Z,22.78
2023-07-25T10:50:58.746Z,22.98
2023-07-25T10:53:26.923Z,23.22
2023-07-25T10:56:13.311Z,23.56
2023-07-25T10:59:02.640Z,23.98
2023-07-25T11:01:38.774Z,24.14
2023-07-25T11:04:32.097Z,24.18
2023-07-25T11:07:11.743Z,24.20
2023-07-25T11:09:44.459Z,24.59
2023-07-25T11:12:14.233Z,24.87
2023-07-25T11:14:44.175Z,24.85
2023-07-25T11:17:13.240Z,24.86
2023-07-25T11:19:41.592Z,25.00
2023-07-25T11:22:12.195Z,25.22
2023-07-25T11:24:45.420Z,25.50
2023-07-25T11:27:16.355Z,25.74
2023-07-25T11:29:44.594Z,25.92
2023-07-25T11:32:12.857Z,26.14
2023-07-25T11:34:41.191Z,25.47
2023-07-25T11:37:13.543Z,25.75
2023-07-25T11:39:41.921Z,25.21
2023-07-25T11:42:10.230Z,24.92
2023-07-25T11:44:39.977Z,25.00
2023-07-25T11:47:08.521Z,24.85
2023-07-25T11:52:09.177Z,25.02
2023-07-25T11:54:40.154Z,24.58
2023-07-25T11:57:13.923Z,24.53
2023-07-25T11:59:45.487Z,24.44
2023-07-25T12:02:14.177Z,24.48
2023-07-25T12:04:47.136Z,24.36
2023-07-25T12:07:16.163Z,24.22
2023-07-25T12:09:54.716Z,24.26
2023-07-25T12:12:23.361Z,24.39
2023-07-25T12:15:01.462Z,23.88
2023-07-25T12:17:45.054Z,24.41
2023-07-25T12:20:17.665Z,24.90
2023-07-25T12:22:46.444Z,25.33
2023-07-25T12:25:18.517Z,25.36
2023-07-25T12:27:48.033Z,25.74
2023-07-25T12:30:18.361Z,24.69
2023-07-25T12:32:46.679Z,24.20
2023-07-25T12:35:17.382Z,23.32
2023-07-25T12:37:45.525Z,23.62
2023-07-25T12:40:13.974Z,23.71
2023-07-25T12:42:42.067Z,23.35
2023-07-25T12:45:11.716Z,23.43
2023-07-25T12:47:41.429Z,23.89
2023-07-25T12:50:11.379Z,24.21
2023-07-25T12:52:39.754Z,24.14
2023-07-25T12:55:08.525Z,24.49
2023-07-25T12:57:37.536Z,23.93
2023-07-25T13:00:08.657Z,23.11
2023-07-25T13:02:38.172Z,23.24
2023-07-25T13:05:10.902Z,23.02
2023-07-25T13:07:39.003Z,23.43
2023-07-25T13:10:08.678Z,23.80
2023-07-25T13:12:36.982Z,23.83
2023-07-25T13:15:06.271Z,23.96
2023-07-25T13:17:35.074Z,24.08
2023-07-25T13:20:04.861Z,24.48
2023-07-25T13:22:34.613Z,25.03
2023-07-25T13:25:04.056Z,24.66
2023-07-25T13:27:32.282Z,23.87
2023-07-25T13:30:01.522Z,24.50
2023-07-25T13:32:29.959Z,25.10
2023-07-25T13:35:00.932Z,24.51
2023-07-25T13:37:29.201Z,25.04
2023-07-25T13:39:58.722Z,25.64
2023-07-25T13:42:27.844Z,24.92
2023-07-25T13:44:56.030Z,24.03
2023-07-25T13:47:24.172Z,24.89
2023-07-25T13:49:52.336Z,25.41
2023-07-25T13:52:20.635Z,25.28
2023-07-25T13:54:48.854Z,24.62
2023-07-25T13:57:18.626Z,24.63
2023-07-25T13:59:46.903Z,24.12
2023-07-25T14:02:15.076Z,24.04
2023-07-25T14:04:43.310Z,24.38
2023-07-25T14:07:11.535Z,23.92
2023-07-25T14:09:39.783Z,23.35
2023-07-25T14:12:09.105Z,23.28
2023-07-25T14:14:38.851Z,23.21
2023-07-25T14:17:08.475Z,23.39
2023-07-25T14:19:37.093Z,24.19
2023-07-25T14:22:05.690Z,24.36
2023-07-25T14:24:40.267Z,24.04
2023-07-25T14:27:09.643Z,24.26
2023-07-25T14:29:40.109Z,24.72
2023-07-25T14:32:09.244Z,25.46
2023-07-25T14:34:37.491Z,25.36
2023-07-25T14:37:06.336Z,24.76
2023-07-25T14:39:35.315Z,24.55
2023-07-25T14:42:04.057Z,24.77
2023-07-25T14:44:32.155Z,25.10
2023-07-25T14:47:01.879Z,25.12
2023-07-25T14:49:30.082Z,25.02
2023-07-25T14:51:58.728Z,24.63
2023-07-25T14:54:26.899Z,23.89
2023-07-25T14:56:55.254Z,24.39
2023-07-25T14:59:26.391Z,24.25
2023-07-25T15:01:58.069Z,24.19
2023-07-25T15:04:27.653Z,24.93
2023-07-25T15:06:55.895Z,25.24
2023-07-25T15:09:24.057Z,25.14
2023-07-25T15:11:52.361Z,24.74
2023-07-25T15:14:22.883Z,24.56
2023-07-25T15:16:51.238Z,23.84
2023-07-25T15:19:19.539Z,24.38
2023-07-25T15:21:49.121Z,23.73
2023-07-25T15:24:17.391Z,23.94
2023-07-25T15:26:45.585Z,23.46
2023-07-25T15:29:16.188Z,23.56
2023-07-25T15:31:44.435Z,23.35
2023-07-25T15:34:12.549Z,23.91
2023-07-25T15:36:40.662Z,23.01
2023-07-25T15:39:12.490Z,23.17
2023-07-25T15:41:40.825Z,23.93
2023-07-25T15:44:08.924Z,23.83
2023-07-25T15:46:37.095Z,23.85
2023-07-25T15:49:05.295Z,23.50
2023-07-25T15:51:33.846Z,22.33
2023-07-25T15:54:02.814Z,22.18
2023-07-25T15:56:32.375Z,22.55
2023-07-25T15:59:00.681Z,22.59
2023-07-25T16:01:29.021Z,22.93
2023-07-25T16:03:57.886Z,22.85
2023-07-25T16:06:26.388Z,22.90
2023-07-25T16:08:54.541Z,22.75
2023-07-25T16:11:22.761Z,22.68
2023-07-25T16:13:52.735Z,22.74
2023-07-25T16:16:21.044Z,22.22
2023-07-25T16:18:49.304Z,22.11
2023-07-25T16:21:17.665Z,21.86
2023-07-25T16:23:45.909Z,21.66
2023-07-25T16:26:14.121Z,22.00
2023-07-25T16:28:42.935Z,22.33
2023-07-25T16:31:31.102Z,22.04
2023-07-25T16:34:00.614Z,22.19
2023-07-25T16:36:28.746Z,22.40
2023-07-25T16:38:56.964Z,22.09
2023-07-25T16:41:25.310Z,22.22
2023-07-25T16:43:53.489Z,22.50
2023-07-25T16:46:23.028Z,22.38
2023-07-25T16:48:51.386Z,22.62
2023-07-25T16:51:19.722Z,22.42
2023-07-25T16:53:47.880Z,22.50
2023-07-25T16:56:16.021Z,22.53
2023-07-25T16:58:44.215Z,22.40
2023-07-25T17:01:12.487Z,22.42
2023-07-25T17:03:42.160Z,22.33
2023-07-25T17:06:10.492Z,22.10
2023-07-25T17:08:38.751Z,21.99
2023-07-25T17:11:08.501Z,22.06
2023-07-25T17:13:38.969Z,22.04
2023-07-25T17:16:09.425Z,21.96
2023-07-25T17:18:37.737Z,22.02
2023-07-25T17:21:07.362Z,22.14
2023-07-25T17:23:35.649Z,22.07
2023-07-25T17:26:04.350Z,22.20
2023-07-25T17:28:32.475Z,21.77
2023-07-25T17:31:00.834Z,21.60
2023-07-25T17:33:29.022Z,21.16
2023-07-25T17:35:57.168Z,21.33
2023-07-25T17:38:26.899Z,21.37
2023-07-25T17:40:55.182Z,21.35
2023-07-25T17:43:23.327Z,21.34
2023-07-25T17:45:51.533Z,21.43
2023-07-25T17:48:21.585Z,21.25
2023-07-25T17:50:49.921Z,21.00
2023-07-25T17:53:18.632Z,21.05
2023-07-25T17:55:49.345Z,20.98
2023-07-25T17:58:17.630Z,20.84
2023-07-25T18:00:50.431Z,20.98
2023-07-25T18:03:21.608Z,20.99
2023-07-25T18:05:49.829Z,20.93
2023-07-25T18:08:18.323Z,20.97
2023-07-25T18:10:47.944Z,20.87
2023-07-25T18:13:21.167Z,20.93
2023-07-25T18:15:50.086Z,20.49
2023-07-25T18:18:19.939Z,20.35
2023-07-25T18:20:51.249Z,20.36
2023-07-25T18:23:20.087Z,20.49
2023-07-25T18:25:50.031Z,19.96
2023-07-25T18:28:18.512Z,19.80
2023-07-25T18:30:46.613Z,19.55
2023-07-25T18:33:15.505Z,19.54
2023-07-25T18:35:43.846Z,19.58
2023-07-25T18:38:12.138Z,19.40
2023-07-25T18:40:40.370Z,19.25
2023-07-25T18:43:12.617Z,19.13
2023-07-25T18:45:40.912Z,19.03
2023-07-25T18:48:09.204Z,19.02
2023-07-25T18:50:39.201Z,18.94
2023-07-25T18:53:07.261Z,18.98
2023-07-25T18:55:35.361Z,18.79
2023-07-25T18:58:03.533Z,18.82
2023-07-25T19:00:33.091Z,18.66
2023-07-25T19:03:01.337Z,18.78
2023-07-25T19:05:29.501Z,18.58
2023-07-25T19:07:58.014Z,18.31
2023-07-25T19:10:27.354Z,18.33
2023-07-25T19:12:55.906Z,18.15
2023-07-25T19:15:24.077Z,18.17
2023-07-25T19:17:53.740Z,18.17
2023-07-25T19:20:21.935Z,18.05
2023-07-25T19:22:50.118Z,17.98
2023-07-25T19:25:18.308Z,17.80
2023-07-25T19:27:49.229Z,17.80
2023-07-25T19:30:17.690Z,17.76
2023-07-25T19:32:45.891Z,17.79
2023-07-25T19:35:15.614Z,17.74
2023-07-25T19:37:43.755Z,17.57
2023-07-25T19:40:12.558Z,17.55
2023-07-25T19:42:41.401Z,17.45
2023-07-25T19:45:10.698Z,17.40
2023-07-25T19:47:41.140Z,17.19
2023-07-25T19:50:09.931Z,17.04
2023-07-25T19:52:39.556Z,16.82
2023-07-25T19:55:08.235Z,17.05
2023-07-25T19:57:39.249Z,17.00
2023-07-25T20:00:09.951Z,16.87
2023-07-25T20:02:40.750Z,16.81
2023-07-25T20:05:09.627Z,16.90
2023-07-25T20:07:39.221Z,16.78
2023-07-25T20:10:07.927Z,16.49
2023-07-25T20:12:36.577Z,16.48
2023-07-25T20:15:05.278Z,16.43
2023-07-25T20:17:33.480Z,16.34
2023-07-25T20:20:01.627Z,16.39
2023-07-25T20:22:29.766Z,16.37
2023-07-25T20:24:59.295Z,16.21
2023-07-25T20:27:27.450Z,16.26
2023-07-25T20:29:55.728Z,16.21
2023-07-25T20:32:23.785Z,16.30
2023-07-25T20:34:52.221Z,16.17
2023-07-25T20:37:20.432Z,16.07
2023-07-25T20:39:48.626Z,15.92
2023-07-25T20:42:18.353Z,15.97
2023-07-25T20:44:46.533Z,16.03
2023-07-25T20:47:14.610Z,16.00
2023-07-25T20:49:42.759Z,15.94
2023-07-25T20:52:10.957Z,15.89
2023-07-25T20:54:39.090Z,15.96
2023-07-25T20:57:07.831Z,15.98
2023-07-25T20:59:37.444Z,15.97
2023-07-25T21:02:06.114Z,15.91
2023-07-25T21:04:34.322Z,15.96
2023-07-25T21:07:02.581Z,15.79
2023-07-25T21:09:30.781Z,15.78
2023-07-25T21:11:58.981Z,15.65
2023-07-25T21:14:27.562Z,15.54
2023-07-25T21:16:57.421Z,15.48
2023-07-25T21:19:25.560Z,15.55
2023-07-25T21:21:53.688Z,15.64
2023-07-25T21:24:21.924Z,15.62
2023-07-25T21:26:50.078Z,15.57
2023-07-25T21:29:18.227Z,15.65
2023-07-25T21:31:46.463Z,15.47
2023-07-25T21:34:16.087Z,15.35
2023-07-25T21:36:44.358Z,15.40
2023-07-25T21:39:15.284Z,15.38
2023-07-25T21:41:43.542Z,15.47
2023-07-25T21:44:11.811Z,15.52
2023-07-25T21:46:40.908Z,15.57
2023-07-25T21:49:11.789Z,15.56
2023-07-25T21:51:41.399Z,15.54
2023-07-25T21:54:09.594Z,15.54
2023-07-25T21:56:37.649Z,15.59
2023-07-25T21:59:05.813Z,15.45
2023-07-25T22:01:34.045Z,15.41
2023-07-25T22:04:02.505Z,15.38
2023-07-25T22:06:30.870Z,15.43
2023-07-25T22:09:00.823Z,15.37
2023-07-25T22:11:29.114Z,15.30
2023-07-25T22:13:57.285Z,15.34
2023-07-25T22:16:28.094Z,15.34
2023-07-25T22:18:56.377Z,15.25
2023-07-25T22:21:24.584Z,15.24
2023-07-25T22:23:52.794Z,15.22
2023-07-25T22:26:22.448Z,15.20
2023-07-25T22:28:53.108Z,15.27
2023-07-25T22:31:21.292Z,15.29
2023-07-25T22:33:49.389Z,15.21
2023-07-25T22:36:17.594Z,15.15
2023-07-25T22:38:45.730Z,15.17
2023-07-25T22:41:13.982Z,15.19
2023-07-25T22:43:45.822Z,15.16
2023-07-25T22:46:16.401Z,15.19
2023-07-25T22:48:44.565Z,15.17
2023-07-25T22:51:14.997Z,15.12
2023-07-25T22:53:43.098Z,15.16
2023-07-25T22:56:11.383Z,15.16
2023-07-25T22:58:39.727Z,15.18
2023-07-25T23:01:09.281Z,15.10
2023-07-25T23:03:39.335Z,15.08
2023-07-25T23:06:07.691Z,15.02
2023-07-25T23:08:36.063Z,15.03
2023-07-25T23:11:04.229Z,14.98
2023-07-25T23:13:32.507Z,14.97
2023-07-25T23:16:00.865Z,14.97
2023-07-25T23:18:30.396Z,14.98
2023-07-25T23:20:58.605Z,14.89
2023-07-25T23:23:26.776Z,14.91
2023-07-25T23:25:54.960Z,14.85
2023-07-25T23:28:23.090Z,14.79
2023-07-25T23:30:51.273Z,14.83
2023-07-25T23:33:22.081Z,14.71
2023-07-25T23:35:51.561Z,14.71
2023-07-25T23:38:19.681Z,14.66
2023-07-25T23:40:50.388Z,14.64
2023-07-25T23:43:18.573Z,14.54
2023-07-25T23:45:46.765Z,14.43
2023-07-25T23:48:14.971Z,14.43
2023-07-25T23:50:43.298Z,14.46
2023-07-25T23:53:12.839Z,14.57
2023-07-25T23:55:41.117Z,14.58
2023-07-25T23:58:09.313Z,14.48
